Latest Coastal Weather Observations for Port Kembla Harbour

IDN60701

Issued at 11:32 am EDT Friday 19 December 2014 (issued every 10 minutes, with the page automatically refreshed every 10 minutes)

About coastal observations | Map of coastal stations | Coastal observations for NSW | Marine services | Other Formats
Station Details ID: 068253 Name: PORT KEMBLA NTC AWS Lat: -34.47 Lon: 150.91 Height: 0.0 m
Data from the previous 72 hours. | See also: Recent months for locations in New South Wales
Date/Time
EDT
Temp

°C
Wind Pressure Rain
since 9am
mm
Weather Cloud Vis
km
Sea
Height
m
Swell
Dir
 
Speed
knots
Gust
knots
hPa Trend Height
m
Period
s
Dir
19/11:30am 19.7 SSE 9 18 1013.0 - - - - - - - - -
19/11:00am 20.4 SSE 8 15 1013.1 - - - - - - - - -
19/10:30am 20.1 SSE 7 14 1012.9 - - - - - - - - -
19/10:00am 19.6 S 7 15 1012.9 - - - - - - - - -
19/09:30am 19.9 S 7 15 1012.7 - - - - - - - - -
19/09:00am 19.8 S 7 15 1012.6 - - - - - - - - -
19/08:30am 19.3 SSW 7 14 1012.4 - - - - - - - - -
19/08:00am 18.9 SSW 8 14 1012.2 - - - - - - - - -
19/07:30am 18.7 SSW 7 13 1011.7 - - - - - - - - -
19/07:00am 18.2 SW 8 13 1011.3 - - - - - - - - -
19/06:30am 17.7 SW 6 8 1010.9 - - - - - - - - -
19/06:00am 17.8 SW 8 15 1010.4 - - - - - - - - -
19/05:30am 18.0 SSW 8 16 1010.1 - - - - - - - - -
19/05:00am 18.0 SSW 11 20 1009.7 - - - - - - - - -
19/04:30am 18.1 SSW 10 20 1009.3 - - - - - - - - -
19/04:00am 18.3 SSW 11 21 1008.7 - - - - - - - - -
19/03:30am 18.8 SSW 12 21 1008.2 - - - - - - - - -
19/03:00am 19.3 SSW 14 27 1007.5 - - - - - - - - -
19/02:30am 21.4 W 7 10 1005.9 - - - - - - - - -
19/02:00am 21.7 WSW 7 9 1005.6 - - - - - - - - -
19/01:30am 21.3 WSW 4 5 1005.4 - - - - - - - - -
19/01:00am 21.8 W 4 6 1005.4 - - - - - - - - -
19/12:30am 20.6 WSW 2 3 1005.5 - - - - - - - - -
19/12:00am 20.5 N 2 3 1005.5 - - - - - - - - -
 
Date/Time
EDT
Temp

°C
Wind Pressure Rain
since 9am
mm
Weather Cloud Vis
km
Sea
Height
m
Swell
Dir
 
Speed
knots
Gust
knots
hPa Trend Height
m
Period
s
Dir
18/11:30pm 20.6 CALM 0 1 1005.7 - - - - - - - - -
18/11:00pm 20.5 N 1 2 1005.7 - - - - - - - - -
18/10:30pm 20.8 N 1 2 1005.9 - - - - - - - - -
18/10:00pm 20.7 N 3 4 1005.9 - - - - - - - - -
18/09:30pm 20.7 NNE 4 5 1005.9 - - - - - - - - -
18/09:00pm 20.9 N 4 7 1005.8 - - - - - - - - -
18/08:30pm 20.9 N 6 9 1005.5 - - - - - - - - -
18/08:00pm 21.3 NE 9 11 1005.0 - - - - - - - - -
18/07:30pm 21.3 NNE 5 8 1004.8 - - - - - - - - -
18/07:00pm 21.5 NNE 8 10 1004.4 - - - - - - - - -
18/06:30pm 21.4 NNE 5 7 1004.0 - - - - - - - - -
18/06:00pm 21.8 NE 10 13 1003.7 - - - - - - - - -
18/05:30pm 21.7 NE 8 11 1003.7 - - - - - - - - -
18/05:00pm 21.6 NE 9 12 1003.8 - - - - - - - - -
18/04:30pm 21.6 NE 8 11 1004.1 - - - - - - - - -
18/04:00pm 21.6 NE 7 10 1004.5 - - - - - - - - -
18/03:30pm 21.2 NE 10 13 1004.8 - - - - - - - - -
18/03:00pm 21.1 NE 9 13 1005.1 - - - - - - - - -
18/02:30pm 21.0 NE 10 14 1005.5 - - - - - - - - -
18/02:00pm 20.8 NE 8 11 1005.9 - - - - - - - - -
18/01:30pm 20.7 NE 7 10 1006.4 - - - - - - - - -
18/01:00pm 20.5 NNE 7 9 1006.7 - - - - - - - - -
18/12:30pm 20.2 NE 6 9 1007.2 - - - - - - - - -
18/12:00pm 19.9 NE 6 8 1007.3 - - - - - - - - -
18/11:30am 19.7 NE 5 7 1008.0 - - - - - - - - -
18/11:00am 19.8 ENE 5 8 1008.3 - - - - - - - - -
18/10:30am 19.6 ENE 4 5 1008.9 - - - - - - - - -
18/10:00am 19.3 NE 4 6 1009.3 - - - - - - - - -
18/09:30am 19.3 NE 5 7 1009.5 - - - - - - - - -
18/09:00am 19.3 NNE 6 8 1009.3 - - - - - - - - -
18/08:30am 19.1 NNE 6 8 1009.8 - - - - - - - - -
18/08:00am 19.4 N 4 7 1010.1 - - - - - - - - -
18/07:30am 19.0 NNW 3 5 1010.1 - - - - - - - - -
18/07:00am 18.8 NNW 4 5 1009.5 - - - - - - - - -
18/06:30am 18.6 NNW 3 5 1009.1 - - - - - - - - -
18/06:00am 18.5 NNW 3 5 1008.9 - - - - - - - - -
18/05:30am 18.4 N 2 5 1008.8 - - - - - - - - -
18/05:00am 18.4 NNW 3 4 1008.8 - - - - - - - - -
18/04:30am 18.2 N 1 2 1008.6 - - - - - - - - -
18/04:00am 18.1 NNW 2 3 1008.7 - - - - - - - - -
18/03:30am 18.1 NNW 2 4 1009.1 - - - - - - - - -
18/03:00am 18.2 NNE 2 4 1009.3 - - - - - - - - -
18/02:30am 18.1 N 1 3 1009.4 - - - - - - - - -
18/02:00am 17.7 N 1 2 1009.5 - - - - - - - - -
18/01:30am 17.3 WSW 5 6 1010.0 - - - - - - - - -
18/01:00am 17.4 WSW 6 8 1010.2 - - - - - - - - -
18/12:30am 17.4 WSW 5 7 1010.5 - - - - - - - - -
18/12:00am 17.5 SW 5 7 1010.7 - - - - - - - - -
 
Date/Time
EDT
Temp

°C
Wind Pressure Rain
since 9am
mm
Weather Cloud Vis
km
Sea
Height
m
Swell
Dir
 
Speed
knots
Gust
knots
hPa Trend Height
m
Period
s
Dir
17/11:30pm 17.4 W 4 9 1011.0 - - - - - - - - -
17/11:00pm 18.3 SSW 2 3 1011.2 - - - - - - - - -
17/10:30pm 18.3 SE 2 3 1011.3 - - - - - - - - -
17/10:00pm 18.2 E 4 7 1011.3 - - - - - - - - -
17/09:30pm 18.0 E 5 9 1011.0 - - - - - - - - -
17/09:00pm 17.9 ESE 6 10 1010.9 - - - - - - - - -
17/08:30pm 18.4 SE 4 7 1010.7 - - - - - - - - -
17/08:00pm 18.4 SE 5 9 1010.1 - - - - - - - - -
17/07:30pm 18.8 SE 7 10 1009.6 - - - - - - - - -
17/07:00pm 18.9 SE 6 9 1009.2 - - - - - - - - -
17/06:30pm 18.9 SE 7 10 1008.7 - - - - - - - - -
17/06:00pm 19.0 SE 7 10 1008.2 - - - - - - - - -
17/05:30pm 19.0 SE 7 11 1008.1 - - - - - - - - -
17/05:00pm 19.2 SSE 5 10 1008.0 - - - - - - - - -
17/04:30pm 19.3 SE 8 11 1008.0 - - - - - - - - -
17/04:00pm 19.4 SE 6 11 1008.0 - - - - - - - - -
17/03:30pm 19.4 SE 6 10 1008.0 - - - - - - - - -
17/03:00pm 19.8 SE 7 12 1008.0 - - - - - - - - -
17/02:30pm 19.6 SE 8 11 1008.0 - - - - - - - - -
17/02:00pm 19.3 SE 7 11 1008.0 - - - - - - - - -
17/01:30pm 19.4 SSE 7 13 1007.9 - - - - - - - - -
17/01:00pm 19.4 SSE 7 14 1007.9 - - - - - - - - -
17/12:30pm 19.4 SSE 7 13 1007.7 - - - - - - - - -
17/12:00pm 19.6 SSE 9 16 1007.7 - - - - - - - - -
17/11:30am 20.1 SSE 9 17 1007.4 - - - - - - - - -
17/11:00am 20.6 SSE 9 18 1007.1 - - - - - - - - -
17/10:30am 20.0 S 9 17 1006.9 - - - - - - - - -
17/10:00am 19.5 SSE 8 17 1006.9 - - - - - - - - -
17/09:30am 19.7 S 7 14 1006.7 - - - - - - - - -
17/09:00am 19.5 S 6 14 1006.6 - - - - - - - - -
17/08:30am 19.2 SSW 7 13 1006.2 - - - - - - - - -
17/08:00am 19.3 SSW 8 15 1005.8 - - - - - - - - -
17/07:30am 18.9 SSW 9 17 1005.3 - - - - - - - - -
17/07:00am 18.8 SSW 9 16 1004.5 - - - - - - - - -
17/06:30am 18.8 SSW 10 20 1003.9 - - - - - - - - -
17/06:00am 18.8 SSW 11 19 1003.0 - - - - - - - - -
17/05:30am 18.8 SSW 12 20 1002.3 - - - - - - - - -
17/05:00am 19.0 SSW 12 23 1001.3 - - - - - - - - -
17/04:30am 19.2 SSW 12 23 1000.4 - - - - - - - - -
17/04:00am 19.8 S 12 22 999.8 - - - - - - - - -
17/03:30am 21.6 S 10 21 998.3 - - - - - - - - -
17/03:00am 23.4 WSW 5 7 996.9 - - - - - - - - -
17/02:30am 23.5 WSW 7 8 996.7 - - - - - - - - -
17/02:00am 20.6 WSW 1 4 996.6 - - - - - - - - -
17/01:30am 20.8 SE 2 2 996.9 - - - - - - - - -
17/01:00am 20.6 CALM 0 2 997.2 - - - - - - - - -
17/12:30am 20.3 SW 1 2 997.4 - - - - - - - - -
17/12:00am 20.4 NE 1 2 997.4 - - - - - - - - -
 
Date/Time
EDT
Temp

°C
Wind Pressure Rain
since 9am
mm
Weather Cloud Vis
km
Sea
Height
m
Swell
Dir
 
Speed
knots
Gust
knots
hPa Trend Height
m
Period
s
Dir
16/11:30pm 20.6 SE 1 2 997.4 - - - - - - - - -
16/11:00pm 20.6 SSE 1 2 997.6 - - - - - - - - -

Other Formats:

Comma delimited format used in spreadsheet applications
http://www.bom.gov.au/fwo/IDN60701/IDN60701.95745.axf

JavaScript Object Notation format (JSON) in row-major order
http://www.bom.gov.au/fwo/IDN60701/IDN60701.95745.json